createdAt,value
2023-03-10T00:01:38.530Z,3.92
2023-03-10T00:04:05.942Z,3.40
2023-03-10T00:06:35.181Z,3.10
2023-03-10T00:09:02.899Z,3.20
2023-03-10T00:11:30.014Z,3.88
2023-03-10T00:13:57.449Z,3.33
2023-03-10T00:16:27.087Z,3.45
2023-03-10T00:18:54.819Z,3.30
2023-03-10T00:21:25.629Z,3.40
2023-03-10T00:23:53.607Z,2.95
2023-03-10T00:26:22.001Z,3.58
2023-03-10T00:28:50.267Z,3.75
2023-03-10T00:31:22.674Z,3.30
2023-03-10T00:33:50.407Z,3.38
2023-03-10T00:36:20.694Z,3.53
2023-03-10T00:41:18.332Z,2.83
2023-03-10T00:43:46.286Z,2.90
2023-03-10T00:46:13.973Z,3.55
2023-03-10T00:48:41.549Z,3.10
2023-03-10T00:51:09.187Z,3.40
2023-03-10T00:53:38.128Z,3.40
2023-03-10T00:56:08.621Z,2.90
2023-03-10T00:58:36.047Z,3.33
2023-03-10T01:01:05.182Z,2.65
2023-03-10T01:03:33.255Z,2.88
2023-03-10T01:06:00.375Z,3.45
2023-03-10T01:08:27.609Z,4.05
2023-03-10T01:10:54.681Z,2.58
2023-03-10T01:13:22.596Z,3.42
2023-03-10T01:15:51.156Z,3.03
2023-03-10T01:18:19.909Z,2.85
2023-03-10T01:20:47.323Z,2.55
2023-03-10T01:23:16.920Z,2.75
2023-03-10T01:25:44.638Z,3.28
2023-03-10T01:28:12.193Z,2.92
2023-03-10T01:30:40.114Z,2.90
2023-03-10T01:33:07.634Z,2.67
2023-03-10T01:35:35.110Z,2.65
2023-03-10T01:38:02.587Z,2.72
2023-03-10T01:40:29.801Z,3.10
2023-03-10T01:43:25.895Z,2.40
2023-03-10T01:46:32.169Z,2.30
2023-03-10T01:49:04.909Z,2.65
2023-03-10T01:51:35.298Z,2.47
2023-03-10T01:56:32.136Z,2.50
2023-03-10T01:58:59.418Z,2.70
2023-03-10T02:01:26.599Z,2.30
2023-03-10T02:04:04.718Z,2.72
2023-03-10T02:06:34.507Z,2.20
2023-03-10T02:09:03.993Z,2.30
2023-03-10T02:11:31.516Z,2.45
2023-03-10T02:14:03.036Z,2.20
2023-03-10T02:16:30.601Z,2.88
2023-03-10T02:18:58.269Z,2.28
2023-03-10T02:21:44.288Z,2.60
2023-03-10T02:24:33.366Z,2.08
2023-03-10T02:27:24.889Z,2.25
2023-03-10T02:30:05.926Z,2.28
2023-03-10T02:32:36.994Z,2.50
2023-03-10T02:35:05.083Z,1.67
2023-03-10T02:37:34.767Z,2.20
2023-03-10T02:40:02.281Z,2.05
2023-03-10T02:42:34.190Z,1.83
2023-03-10T02:45:03.580Z,2.00
2023-03-10T02:47:30.760Z,1.70
2023-03-10T02:49:57.956Z,2.28
2023-03-10T02:52:38.007Z,2.38
2023-03-10T02:55:05.605Z,1.92
2023-03-10T02:57:33.673Z,1.70
2023-03-10T03:00:00.762Z,2.00
2023-03-10T03:02:27.885Z,1.98
2023-03-10T03:04:54.986Z,2.00
2023-03-10T03:07:22.130Z,1.73
2023-03-10T03:09:50.109Z,2.00
2023-03-10T03:12:17.236Z,2.13
2023-03-10T03:14:44.360Z,1.80
2023-03-10T03:17:11.613Z,1.80
2023-03-10T03:19:38.741Z,1.52
2023-03-10T03:22:06.405Z,1.60
2023-03-10T03:24:33.648Z,1.60
2023-03-10T03:27:00.831Z,1.80
2023-03-10T03:29:27.995Z,1.60
2023-03-10T03:31:55.197Z,1.90
2023-03-10T03:34:22.576Z,1.77
2023-03-10T03:36:49.774Z,1.45
2023-03-10T03:39:17.774Z,1.88
2023-03-10T03:41:45.090Z,1.50
2023-03-10T03:44:12.200Z,1.75
2023-03-10T03:46:39.879Z,1.40
2023-03-10T03:49:07.055Z,1.35
2023-03-10T03:51:36.686Z,1.45
2023-03-10T03:54:04.094Z,1.38
2023-03-10T03:56:31.293Z,1.30
2023-03-10T03:58:59.155Z,1.60
2023-03-10T04:01:26.311Z,2.00
2023-03-10T04:03:53.576Z,1.20
2023-03-10T04:06:20.836Z,1.60
2023-03-10T04:08:50.578Z,1.70
2023-03-10T04:11:18.641Z,1.30
2023-03-10T04:13:45.832Z,1.20
2023-03-10T04:16:13.243Z,1.48
2023-03-10T04:18:40.566Z,1.23
2023-03-10T04:21:07.716Z,1.35
2023-03-10T04:23:34.930Z,1.55
2023-03-10T04:26:02.181Z,1.27
2023-03-10T04:28:29.400Z,1.38
2023-03-10T04:30:56.782Z,1.10
2023-03-10T04:33:23.974Z,1.00
2023-03-10T04:35:51.678Z,1.30
2023-03-10T04:38:19.447Z,1.40
2023-03-10T04:40:52.912Z,1.70
2023-03-10T04:43:20.064Z,1.20
2023-03-10T04:45:49.163Z,1.08
2023-03-10T04:48:16.300Z,1.38
2023-03-10T04:50:43.701Z,1.17
2023-03-10T04:53:10.877Z,1.23
2023-03-10T04:55:38.681Z,1.27
2023-03-10T04:58:06.995Z,1.13
2023-03-10T05:00:34.199Z,1.27
2023-03-10T05:03:01.357Z,0.90
2023-03-10T05:05:28.480Z,1.27
2023-03-10T05:07:55.577Z,1.00
2023-03-10T05:10:23.722Z,1.08
2023-03-10T05:12:50.972Z,1.55
2023-03-10T05:15:18.116Z,1.25
2023-03-10T05:17:45.939Z,1.10
2023-03-10T05:20:15.310Z,1.52
2023-03-10T05:22:43.466Z,1.23
2023-03-10T05:25:12.067Z,1.27
2023-03-10T05:27:39.874Z,1.00
2023-03-10T05:30:08.732Z,0.88
2023-03-10T05:32:36.324Z,1.02
2023-03-10T05:35:04.716Z,1.02
2023-03-10T05:37:32.400Z,1.52
2023-03-10T05:39:59.799Z,1.40
2023-03-10T05:42:26.960Z,1.42
2023-03-10T05:44:57.371Z,1.30
2023-03-10T05:49:51.669Z,1.58
2023-03-10T05:52:18.810Z,1.33
2023-03-10T05:54:45.908Z,1.38
2023-03-10T05:57:14.187Z,1.38
2023-03-10T05:59:41.428Z,1.13
2023-03-10T06:02:08.617Z,1.58
2023-03-10T06:04:35.904Z,1.30
2023-03-10T06:07:03.498Z,1.60
2023-03-10T06:09:32.556Z,1.52
2023-03-10T06:12:00.551Z,1.35
2023-03-10T06:14:27.888Z,1.30
2023-03-10T06:16:56.015Z,1.15
2023-03-10T06:19:24.062Z,1.83
2023-03-10T06:21:51.320Z,1.60
2023-03-10T06:24:18.690Z,1.80
2023-03-10T06:26:45.945Z,1.95
2023-03-10T06:29:13.300Z,1.88
2023-03-10T06:31:41.651Z,1.45
2023-03-10T06:34:08.831Z,1.70
2023-03-10T06:36:37.548Z,1.90
2023-03-10T06:39:04.793Z,1.45
2023-03-10T06:41:31.943Z,1.85
2023-03-10T06:43:59.655Z,1.65
2023-03-10T06:46:27.150Z,1.63
2023-03-10T06:48:54.344Z,2.10
2023-03-10T06:51:23.215Z,1.60
2023-03-10T06:53:50.927Z,2.00
2023-03-10T06:56:21.366Z,1.60
2023-03-10T07:01:26.475Z,1.40
2023-03-10T07:03:54.032Z,1.58
2023-03-10T07:06:22.720Z,1.80
2023-03-10T07:08:50.900Z,1.60
2023-03-10T07:11:21.211Z,1.73
2023-03-10T07:16:15.760Z,1.52
2023-03-10T07:18:43.405Z,1.23
2023-03-10T07:21:12.765Z,1.10
2023-03-10T07:23:39.915Z,1.30
2023-03-10T07:26:09.200Z,1.55
2023-03-10T07:28:38.184Z,1.60
2023-03-10T07:31:08.112Z,1.40
2023-03-10T07:33:36.115Z,2.05
2023-03-10T07:36:08.968Z,1.65
2023-03-10T07:38:36.708Z,1.50
2023-03-10T07:41:08.917Z,1.23
2023-03-10T07:43:36.744Z,1.50
2023-03-10T07:46:09.430Z,1.10
2023-03-10T07:48:36.919Z,1.30
2023-03-10T07:51:04.215Z,1.50
2023-03-10T07:53:31.772Z,1.40
2023-03-10T07:55:59.047Z,1.52
2023-03-10T07:58:26.334Z,1.23
2023-03-10T08:00:56.176Z,1.08
2023-03-10T08:03:24.718Z,1.80
2023-03-10T08:05:52.254Z,1.80
2023-03-10T08:08:19.920Z,1.42
2023-03-10T08:10:47.444Z,1.73
2023-03-10T08:13:14.906Z,1.67
2023-03-10T08:15:42.618Z,1.30
2023-03-10T08:18:10.144Z,1.35
2023-03-10T08:20:38.019Z,1.00
2023-03-10T08:23:05.921Z,1.08
2023-03-10T08:25:33.199Z,1.48
2023-03-10T08:28:00.455Z,1.10
2023-03-10T08:30:27.714Z,1.35
2023-03-10T08:32:54.889Z,1.60
2023-03-10T08:35:22.218Z,0.95
2023-03-10T08:37:53.459Z,1.15
2023-03-10T08:40:22.021Z,1.13
2023-03-10T08:42:49.149Z,1.23
2023-03-10T08:45:17.442Z,1.38
2023-03-10T08:47:44.647Z,1.55
2023-03-10T08:50:13.101Z,1.05
2023-03-10T08:52:41.258Z,1.00
2023-03-10T08:55:09.186Z,0.88
2023-03-10T08:57:36.733Z,1.02
2023-03-10T09:00:06.329Z,1.25
2023-03-10T09:02:34.095Z,1.45
2023-03-10T09:05:01.332Z,1.20
2023-03-10T09:07:28.480Z,1.20
2023-03-10T09:09:55.962Z,1.02
2023-03-10T09:12:23.172Z,0.90
2023-03-10T09:14:50.434Z,1.20
2023-03-10T09:17:17.599Z,1.00
2023-03-10T09:19:44.878Z,0.80
2023-03-10T09:22:12.176Z,1.30
2023-03-10T09:24:39.268Z,2.35
2023-03-10T09:27:06.565Z,1.08
2023-03-10T09:29:43.181Z,1.00
2023-03-10T09:32:10.955Z,1.08
2023-03-10T09:34:38.271Z,0.80
2023-03-10T09:37:06.949Z,1.63
2023-03-10T09:42:35.774Z,1.05
2023-03-10T09:45:26.968Z,1.00
2023-03-10T09:48:16.315Z,1.00
2023-03-10T09:50:52.827Z,0.90
2023-03-10T09:53:55.135Z,0.90
2023-03-10T09:56:32.877Z,1.08
2023-03-10T09:59:14.513Z,1.30
2023-03-10T10:01:46.720Z,1.05
2023-03-10T10:04:39.710Z,1.23
2023-03-10T10:07:15.794Z,1.45
2023-03-10T10:10:05.970Z,1.10
2023-03-10T10:15:14.099Z,1.05
2023-03-10T10:18:08.564Z,0.90
2023-03-10T10:20:59.420Z,1.10
2023-03-10T10:23:45.140Z,0.90
2023-03-10T10:26:22.625Z,1.30
2023-03-10T10:28:56.119Z,1.27
2023-03-10T10:31:26.477Z,0.90
2023-03-10T10:34:05.811Z,0.77
2023-03-10T10:36:47.353Z,0.90
2023-03-10T10:39:37.390Z,1.10
2023-03-10T10:42:26.275Z,0.95
2023-03-10T10:44:57.220Z,1.73
2023-03-10T10:47:29.565Z,1.30
2023-03-10T10:50:25.968Z,1.25
2023-03-10T10:53:17.123Z,0.70
2023-03-10T10:55:46.116Z,1.45
2023-03-10T10:58:30.132Z,1.00
2023-03-10T11:01:01.096Z,0.73
2023-03-10T11:03:37.586Z,1.00
2023-03-10T11:06:27.342Z,1.13
2023-03-10T11:09:21.743Z,0.88
2023-03-10T11:12:14.870Z,0.93
2023-03-10T11:14:55.993Z,1.05
2023-03-10T11:17:38.508Z,0.73
2023-03-10T11:20:46.635Z,0.90
2023-03-10T11:23:40.957Z,1.10
2023-03-10T11:26:46.833Z,1.00
2023-03-10T11:29:29.177Z,0.90
2023-03-10T11:32:34.116Z,0.80
2023-03-10T11:35:11.381Z,1.13
2023-03-10T11:37:52.128Z,0.70
2023-03-10T11:40:51.693Z,1.15
2023-03-10T11:43:47.465Z,0.95
2023-03-10T11:46:24.782Z,0.80
2023-03-10T11:49:11.538Z,1.08
2023-03-10T11:51:48.752Z,0.82
2023-03-10T11:54:32.057Z,1.15
2023-03-10T11:57:03.778Z,0.90
2023-03-10T11:59:36.517Z,0.90
2023-03-10T12:02:24.799Z,0.77
2023-03-10T12:05:04.042Z,0.90
2023-03-10T12:07:46.689Z,0.70
2023-03-10T12:10:17.527Z,0.95
2023-03-10T12:12:47.440Z,1.17
2023-03-10T12:15:34.097Z,0.90
2023-03-10T12:18:04.092Z,1.10
2023-03-10T12:20:33.427Z,0.85
2023-03-10T12:23:31.095Z,0.80
2023-03-10T12:25:59.037Z,0.90
2023-03-10T12:28:29.896Z,0.82
2023-03-10T12:31:36.922Z,1.10
2023-03-10T12:34:23.376Z,1.05
2023-03-10T12:36:54.104Z,1.08
2023-03-10T12:39:32.873Z,0.90
2023-03-10T12:42:33.402Z,0.88
2023-03-10T12:45:17.351Z,1.52
2023-03-10T12:48:11.140Z,1.15
2023-03-10T12:50:58.742Z,0.82
2023-03-10T12:53:46.442Z,0.88
2023-03-10T12:56:38.664Z,0.63
2023-03-10T12:59:20.843Z,1.00
2023-03-10T13:01:55.958Z,1.48
2023-03-10T13:04:25.242Z,0.90
2023-03-10T13:06:56.961Z,1.80
2023-03-10T13:09:33.061Z,1.27
2023-03-10T13:12:17.386Z,0.98
2023-03-10T13:14:44.945Z,1.23
2023-03-10T13:17:25.578Z,1.00
2023-03-10T13:19:59.133Z,0.70
2023-03-10T13:22:26.385Z,0.70
2023-03-10T13:25:03.103Z,0.90
2023-03-10T13:27:34.272Z,0.93
2023-03-10T13:30:20.215Z,1.30
2023-03-10T13:32:56.720Z,1.23
2023-03-10T13:35:38.695Z,0.60
2023-03-10T13:38:24.764Z,0.93
2023-03-10T13:41:02.863Z,1.52
2023-03-10T13:43:38.831Z,0.95
2023-03-10T13:46:13.748Z,0.80
2023-03-10T13:48:41.678Z,1.20
2023-03-10T13:51:32.128Z,0.93
2023-03-10T13:54:20.839Z,0.85
2023-03-10T13:56:51.052Z,0.80
2023-03-10T13:59:23.820Z,1.73
2023-03-10T14:01:55.647Z,0.82
2023-03-10T14:04:46.739Z,1.20
2023-03-10T14:07:21.115Z,1.45
2023-03-10T14:10:10.529Z,1.45
2023-03-10T14:12:44.166Z,1.80
2023-03-10T14:15:28.854Z,1.25
2023-03-10T14:18:17.508Z,1.30
2023-03-10T14:20:47.173Z,1.40
2023-03-10T14:23:26.718Z,1.00
2023-03-10T14:25:56.414Z,1.17
2023-03-10T14:28:30.923Z,1.20
2023-03-10T14:30:59.271Z,1.30
2023-03-10T14:33:26.676Z,1.27
2023-03-10T14:35:53.831Z,1.25
2023-03-10T14:38:21.167Z,1.40
2023-03-10T14:40:51.695Z,1.83
2023-03-10T14:43:22.324Z,1.40
2023-03-10T14:45:51.123Z,1.42
2023-03-10T14:48:21.303Z,1.58
2023-03-10T14:53:24.109Z,1.20
2023-03-10T14:55:54.443Z,1.35
2023-03-10T14:58:24.825Z,1.70
2023-03-10T15:00:52.389Z,1.83
2023-03-10T15:03:19.892Z,1.38
2023-03-10T15:05:49.109Z,1.52
2023-03-10T15:08:17.852Z,1.83
2023-03-10T15:10:48.640Z,1.88
2023-03-10T15:13:18.391Z,1.60
2023-03-10T15:15:47.363Z,1.70
2023-03-10T15:18:19.945Z,1.40
2023-03-10T15:20:47.392Z,1.58
2023-03-10T15:23:17.071Z,1.80
2023-03-10T15:28:13.993Z,1.63
2023-03-10T15:30:41.598Z,1.42
2023-03-10T15:33:08.705Z,1.45
2023-03-10T15:35:35.881Z,1.55
2023-03-10T15:38:03.353Z,1.42
2023-03-10T15:40:32.264Z,1.70
2023-03-10T15:43:00.048Z,1.90
2023-03-10T15:45:29.497Z,1.80
2023-03-10T15:47:57.762Z,1.70
2023-03-10T15:50:25.574Z,1.45
2023-03-10T15:52:55.454Z,1.95
2023-03-10T15:55:23.003Z,1.45
2023-03-10T15:57:50.319Z,1.63
2023-03-10T16:00:23.312Z,1.52
2023-03-10T16:02:51.071Z,1.90
2023-03-10T16:05:19.022Z,2.15
2023-03-10T16:07:46.307Z,1.55
2023-03-10T16:10:15.713Z,1.98
2023-03-10T16:12:42.879Z,1.80
2023-03-10T16:15:10.757Z,1.80
2023-03-10T16:17:37.907Z,1.73
2023-03-10T16:20:12.078Z,1.50
2023-03-10T16:22:41.033Z,1.50
2023-03-10T16:25:11.996Z,2.10
2023-03-10T16:27:39.081Z,1.90
2023-03-10T16:30:08.118Z,1.40
2023-03-10T16:32:35.711Z,1.40
2023-03-10T16:35:02.798Z,1.85
2023-03-10T16:37:30.262Z,1.42
2023-03-10T16:39:57.746Z,1.88
2023-03-10T16:42:26.412Z,1.70
2023-03-10T16:44:56.987Z,1.40
2023-03-10T16:47:24.471Z,1.33
2023-03-10T16:49:51.537Z,1.50
2023-03-10T16:52:18.541Z,1.50
2023-03-10T16:54:47.463Z,1.65
2023-03-10T16:57:15.607Z,1.45
2023-03-10T16:59:44.757Z,1.80
2023-03-10T17:02:18.030Z,1.63
2023-03-10T17:04:45.588Z,1.33
2023-03-10T17:07:12.862Z,1.65
2023-03-10T17:09:39.949Z,1.38
2023-03-10T17:12:07.257Z,1.45
2023-03-10T17:14:34.299Z,1.30
2023-03-10T17:17:01.565Z,1.30
2023-03-10T17:19:31.667Z,1.55
2023-03-10T17:21:59.174Z,1.73
2023-03-10T17:24:27.368Z,1.05
2023-03-10T17:26:54.454Z,1.20
2023-03-10T17:29:21.549Z,1.35
2023-03-10T17:31:50.358Z,1.38
2023-03-10T17:34:18.812Z,1.20
2023-03-10T17:36:46.904Z,1.20
2023-03-10T17:39:19.692Z,1.45
2023-03-10T17:41:48.039Z,1.60
2023-03-10T17:44:15.937Z,1.30
2023-03-10T17:46:43.164Z,1.10
2023-03-10T17:49:12.590Z,1.10
2023-03-10T17:51:43.675Z,1.30
2023-03-10T17:54:13.965Z,1.10
2023-03-10T17:56:41.122Z,1.52
2023-03-10T17:59:10.707Z,0.95
2023-03-10T18:01:37.810Z,1.30
2023-03-10T18:04:04.990Z,0.98
2023-03-10T18:06:34.047Z,1.27
2023-03-10T18:09:04.753Z,0.90
2023-03-10T18:11:33.538Z,1.63
2023-03-10T18:14:03.517Z,0.98
2023-03-10T18:18:59.764Z,1.45
2023-03-10T18:21:27.759Z,1.42
2023-03-10T18:23:55.182Z,1.00
2023-03-10T18:26:25.637Z,1.42
2023-03-10T18:28:52.669Z,0.95
2023-03-10T18:31:26.832Z,1.02
2023-03-10T18:33:54.163Z,1.15
2023-03-10T18:36:23.368Z,1.30
2023-03-10T18:38:51.080Z,1.15
2023-03-10T18:41:20.402Z,1.08
2023-03-10T18:43:47.448Z,1.20
2023-03-10T18:46:14.653Z,1.15
2023-03-10T18:48:41.716Z,0.80
2023-03-10T18:51:10.173Z,1.10
2023-03-10T18:53:37.927Z,0.80
2023-03-10T18:56:05.448Z,0.77
2023-03-10T18:58:33.286Z,0.98
2023-03-10T19:01:00.410Z,0.93
2023-03-10T19:03:31.478Z,1.00
2023-03-10T19:05:58.547Z,1.00
2023-03-10T19:08:27.393Z,0.98
2023-03-10T19:10:57.278Z,0.70
2023-03-10T19:13:26.489Z,1.20
2023-03-10T19:15:53.632Z,1.17
2023-03-10T19:18:22.279Z,0.93
2023-03-10T19:20:50.940Z,0.88
2023-03-10T19:23:18.534Z,1.10
2023-03-10T19:25:45.535Z,0.85
2023-03-10T19:28:12.694Z,1.05
2023-03-10T19:30:42.999Z,1.20
2023-03-10T19:33:11.197Z,0.98
2023-03-10T19:35:38.987Z,1.00
2023-03-10T19:38:06.423Z,0.85
2023-03-10T19:40:34.154Z,0.65
2023-03-10T19:43:01.848Z,0.88
2023-03-10T19:45:29.089Z,0.77
2023-03-10T19:47:58.028Z,0.80
2023-03-10T19:50:25.503Z,0.75
2023-03-10T19:52:53.098Z,0.80
2023-03-10T19:55:23.573Z,0.90
2023-03-10T19:57:52.304Z,1.17
2023-03-10T20:00:25.512Z,0.98
2023-03-10T20:02:54.453Z,1.02
2023-03-10T20:05:22.930Z,1.00
2023-03-10T20:07:50.160Z,0.90
2023-03-10T20:10:18.626Z,0.80
2023-03-10T20:12:51.319Z,0.90
2023-03-10T20:15:18.852Z,1.17
2023-03-10T20:17:46.316Z,0.90
2023-03-10T20:20:15.263Z,0.90
2023-03-10T20:22:45.705Z,0.75
2023-03-10T20:27:40.818Z,0.80
2023-03-10T20:30:18.192Z,0.82
2023-03-10T20:32:45.904Z,1.00
2023-03-10T20:35:14.279Z,0.70
2023-03-10T20:37:42.178Z,0.80
2023-03-10T20:40:13.118Z,0.82
2023-03-10T20:42:41.224Z,0.70
2023-03-10T20:45:10.231Z,0.90
2023-03-10T20:47:37.762Z,1.02
2023-03-10T20:50:07.532Z,0.80
2023-03-10T20:52:36.384Z,0.80
2023-03-10T20:55:05.001Z,0.80
2023-03-10T20:57:32.689Z,0.80
2023-03-10T21:00:00.768Z,0.60
2023-03-10T21:02:27.807Z,0.90
2023-03-10T21:04:55.851Z,0.77
2023-03-10T21:07:22.904Z,0.80
2023-03-10T21:09:49.962Z,0.80
2023-03-10T21:12:18.752Z,0.88
2023-03-10T21:14:46.260Z,1.42
2023-03-10T21:17:13.747Z,0.63
2023-03-10T21:19:40.828Z,1.17
2023-03-10T21:22:08.174Z,0.93
2023-03-10T21:24:35.296Z,0.88
2023-03-10T21:27:02.325Z,0.70
2023-03-10T21:29:29.376Z,0.70
2023-03-10T21:31:56.529Z,0.50
2023-03-10T21:34:23.623Z,0.70
2023-03-10T21:36:50.671Z,0.90
2023-03-10T21:39:17.760Z,1.15
2023-03-10T21:41:45.082Z,0.75
2023-03-10T21:44:12.482Z,0.90
2023-03-10T21:46:39.812Z,0.73
2023-03-10T21:49:07.554Z,1.13
2023-03-10T21:51:35.140Z,0.63
2023-03-10T21:54:03.560Z,0.70
2023-03-10T21:56:31.491Z,0.75
2023-03-10T21:58:58.587Z,0.55
2023-03-10T22:01:25.877Z,0.93
2023-03-10T22:03:53.059Z,1.15
2023-03-10T22:06:20.119Z,0.60
2023-03-10T22:08:47.180Z,0.68
2023-03-10T22:11:14.391Z,0.70
2023-03-10T22:13:41.611Z,0.77
2023-03-10T22:16:14.086Z,0.52
2023-03-10T22:18:41.172Z,0.80
2023-03-10T22:21:08.306Z,0.75
2023-03-10T22:23:35.377Z,0.80
2023-03-10T22:26:02.440Z,0.60
2023-03-10T22:28:29.526Z,0.65
2023-03-10T22:30:56.709Z,0.80
2023-03-10T22:33:23.749Z,0.93
2023-03-10T22:35:52.425Z,0.68
2023-03-10T22:38:20.611Z,0.73
2023-03-10T22:40:48.240Z,0.80
2023-03-10T22:43:15.878Z,0.70
2023-03-10T22:45:43.254Z,0.60
2023-03-10T22:48:10.596Z,0.57
2023-03-10T22:50:40.416Z,0.77
2023-03-10T22:53:12.439Z,0.80
2023-03-10T22:55:39.718Z,0.52
2023-03-10T22:58:07.753Z,0.90
2023-03-10T23:00:35.358Z,0.68
2023-03-10T23:03:04.960Z,0.50
2023-03-10T23:05:32.312Z,0.60
2023-03-10T23:07:59.798Z,0.82
2023-03-10T23:10:30.672Z,0.70
2023-03-10T23:13:00.672Z,0.55
2023-03-10T23:15:31.801Z,0.52
2023-03-10T23:17:59.040Z,0.75
2023-03-10T23:20:29.555Z,0.70
2023-03-10T23:22:59.560Z,1.08
2023-03-10T23:25:34.144Z,0.75
2023-03-10T23:28:02.222Z,0.90
2023-03-10T23:30:29.700Z,0.60
2023-03-10T23:32:57.273Z,0.68
2023-03-10T23:35:29.064Z,0.68
2023-03-10T23:37:56.239Z,0.85
2023-03-10T23:40:27.260Z,1.02
2023-03-10T23:42:55.879Z,0.68
2023-03-10T23:45:24.973Z,1.05
2023-03-10T23:47:52.711Z,0.50
2023-03-10T23:50:24.194Z,1.20
2023-03-10T23:52:51.344Z,0.77
2023-03-10T23:55:22.505Z,0.70
2023-03-10T23:57:50.141Z,0.73
